SBBR/BSB METAR and TAF weather

Enter ICAO airport designator
Station Type Date Time Source
SBBR METAR 2021/07/24 20:00 UTC NOAA

SBBR 242000Z 08010KT CAVOK 23/08 Q1022


Station Type Date Time Source
SBBR Decoded METAR 2021/07/24 20:00 UTC NOAA

Brasilia Aeroporto , Brazil (SBBR) 15-52S 047-56W 1061M
Jul 24, 2021 - 04:00 PM EDT / 2021.07.24 2000 UTC
Wind: from the E (080 degrees) at 12 MPH (10 KT):0
Visibility: greater than 7 mile(s):0
Temperature: 73 F (23 C)
Dew Point: 46 F (8 C)
Relative Humidity: 38%
Pressure (altimeter): 30.18 in. Hg (1022 hPa)
ob: SBBR 242000Z 08010KT CAVOK 23/08 Q1022
cycle: 20

Station Type Date Time Source
SBBR TAF 2021/07/24 18:31 UTC NOAA

TAF SBBR 241510Z 2418/2518 07010KT CAVOK TN12/2509Z TX24/2517Z
RMK PGG

Example: see airport list